createdAt,value
2022-10-04T00:01:10.561Z,14.00
2022-10-04T00:03:49.806Z,14.01
2022-10-04T00:06:25.625Z,14.03
2022-10-04T00:09:01.445Z,13.86
2022-10-04T00:11:34.233Z,13.87
2022-10-04T00:14:10.031Z,13.91
2022-10-04T00:16:41.934Z,13.98
2022-10-04T00:19:23.770Z,14.07
2022-10-04T00:21:56.620Z,13.99
2022-10-04T00:24:31.545Z,13.98
2022-10-04T00:27:19.033Z,14.07
2022-10-04T00:30:06.919Z,14.06
2022-10-04T00:32:48.963Z,13.95
2022-10-04T00:35:27.450Z,14.06
2022-10-04T00:38:18.037Z,14.06
2022-10-04T00:40:55.177Z,13.90
2022-10-04T00:43:33.910Z,13.94
2022-10-04T00:46:12.317Z,13.94
2022-10-04T00:48:47.746Z,13.93
2022-10-04T00:51:46.763Z,13.81
2022-10-04T00:54:22.446Z,13.72
2022-10-04T00:56:55.225Z,13.77
2022-10-04T00:59:34.048Z,13.64
2022-10-04T01:02:09.742Z,13.64
2022-10-04T01:04:42.270Z,13.68
2022-10-04T01:07:15.056Z,13.81
2022-10-04T01:09:55.985Z,13.73
2022-10-04T01:12:43.787Z,13.68
2022-10-04T01:15:19.133Z,13.76
2022-10-04T01:18:13.285Z,13.80
2022-10-04T01:20:51.892Z,13.75
2022-10-04T01:23:45.625Z,13.62
2022-10-04T01:26:33.384Z,13.56
2022-10-04T01:29:18.146Z,13.61
2022-10-04T01:31:53.867Z,13.61
2022-10-04T01:34:26.734Z,13.62
2022-10-04T01:37:01.190Z,13.54
2022-10-04T01:39:31.079Z,13.56
2022-10-04T01:42:15.767Z,13.50
2022-10-04T01:44:55.337Z,13.45
2022-10-04T01:47:31.185Z,13.34
2022-10-04T01:50:07.563Z,13.24
2022-10-04T01:52:42.578Z,13.30
2022-10-04T01:55:17.827Z,13.20
2022-10-04T01:57:53.311Z,13.12
2022-10-04T02:00:24.534Z,13.10
2022-10-04T02:03:03.511Z,13.22
2022-10-04T02:05:40.132Z,12.96
2022-10-04T02:08:16.231Z,13.29
2022-10-04T02:10:48.968Z,13.31
2022-10-04T02:13:19.353Z,13.15
2022-10-04T02:15:50.556Z,13.12
2022-10-04T02:18:22.781Z,13.03
2022-10-04T02:20:55.037Z,13.13
2022-10-04T02:23:26.171Z,12.91
2022-10-04T02:25:55.985Z,12.92
2022-10-04T02:28:25.756Z,12.95
2022-10-04T02:31:13.456Z,12.85
2022-10-04T02:33:45.667Z,12.85
2022-10-04T02:36:16.557Z,12.85
2022-10-04T02:38:52.625Z,12.77
2022-10-04T02:41:27.634Z,12.89
2022-10-04T02:44:12.619Z,13.00
2022-10-04T02:46:45.507Z,12.93
2022-10-04T02:49:23.962Z,12.78
2022-10-04T02:52:08.576Z,12.67
2022-10-04T02:54:41.676Z,12.52
2022-10-04T02:57:22.872Z,12.54
2022-10-04T02:59:54.598Z,12.54
2022-10-04T03:02:31.832Z,12.37
2022-10-04T03:05:14.096Z,12.27
2022-10-04T03:07:45.057Z,12.43
2022-10-04T03:10:15.165Z,12.29
2022-10-04T03:12:45.332Z,12.25
2022-10-04T03:15:15.523Z,12.15
2022-10-04T03:17:45.835Z,12.22
2022-10-04T03:20:20.476Z,12.07
2022-10-04T03:22:55.366Z,12.13
2022-10-04T03:25:31.004Z,12.18
2022-10-04T03:28:03.546Z,12.23
2022-10-04T03:30:35.617Z,12.25
2022-10-04T03:33:06.935Z,12.30
2022-10-04T03:35:40.305Z,12.24
2022-10-04T03:38:12.336Z,12.23
2022-10-04T03:40:45.435Z,12.15
2022-10-04T03:43:15.742Z,12.04
2022-10-04T03:45:45.718Z,12.04
2022-10-04T03:48:19.183Z,11.99
2022-10-04T03:50:50.264Z,12.09
2022-10-04T03:53:43.849Z,12.07
2022-10-04T03:56:21.376Z,11.98
2022-10-04T03:58:51.146Z,12.03
2022-10-04T04:01:41.823Z,11.85
2022-10-04T04:04:18.171Z,11.80
2022-10-04T04:07:05.589Z,11.74
2022-10-04T04:09:44.152Z,11.57
2022-10-04T04:12:21.228Z,11.63
2022-10-04T04:14:53.268Z,11.57
2022-10-04T04:17:32.128Z,11.53
2022-10-04T04:20:07.599Z,11.65
2022-10-04T04:22:37.745Z,11.60
2022-10-04T04:25:12.016Z,11.59
2022-10-04T04:27:44.709Z,11.57
2022-10-04T04:30:17.944Z,11.49
2022-10-04T04:32:50.738Z,11.54
2022-10-04T04:35:26.488Z,11.38
2022-10-04T04:38:14.102Z,11.34
2022-10-04T04:40:44.493Z,11.23
2022-10-04T04:43:17.761Z,11.14
2022-10-04T04:46:02.910Z,11.15
2022-10-04T04:48:23.890Z,11.21
2022-10-04T04:50:58.821Z,11.24
2022-10-04T04:53:30.512Z,11.06
2022-10-04T04:56:04.890Z,11.22
2022-10-04T04:58:41.421Z,11.06
2022-10-04T05:01:26.132Z,11.03
2022-10-04T05:04:14.012Z,11.09
2022-10-04T05:07:01.367Z,11.11
2022-10-04T05:09:39.072Z,11.10
2022-10-04T05:12:22.312Z,11.00
2022-10-04T05:14:54.126Z,11.06
2022-10-04T05:17:26.682Z,11.01
2022-10-04T05:19:58.876Z,10.97
2022-10-04T05:22:29.626Z,10.86
2022-10-04T05:27:40.204Z,10.90
2022-10-04T05:30:27.223Z,10.83
2022-10-04T05:33:00.394Z,10.90
2022-10-04T05:35:32.101Z,10.89
2022-10-04T05:38:10.630Z,10.89
2022-10-04T05:41:07.149Z,10.91
2022-10-04T05:43:48.099Z,10.82
2022-10-04T05:46:27.089Z,10.76
2022-10-04T05:49:03.106Z,10.71
2022-10-04T05:51:38.260Z,10.73
2022-10-04T05:54:10.926Z,10.72
2022-10-04T05:56:59.967Z,10.65
2022-10-04T05:59:33.061Z,10.66
2022-10-04T06:02:36.971Z,10.71
2022-10-04T06:05:29.179Z,10.76
2022-10-04T06:08:08.560Z,10.70
2022-10-04T06:11:02.215Z,10.73
2022-10-04T06:13:51.720Z,10.83
2022-10-04T06:19:13.203Z,10.90
2022-10-04T06:22:06.487Z,10.82
2022-10-04T06:24:39.552Z,10.88
2022-10-04T06:27:15.635Z,10.94
2022-10-04T06:29:48.438Z,10.95
2022-10-04T06:32:26.632Z,11.01
2022-10-04T06:35:17.514Z,10.94
2022-10-04T06:38:07.125Z,11.05
2022-10-04T06:41:02.051Z,11.14
2022-10-04T06:43:50.261Z,11.26
2022-10-04T06:46:42.407Z,11.24
2022-10-04T06:49:29.976Z,11.18
2022-10-04T06:52:17.761Z,11.36
2022-10-04T06:55:23.467Z,11.50
2022-10-04T06:58:08.713Z,11.66
2022-10-04T07:00:50.474Z,11.69
2022-10-04T07:03:26.467Z,11.76
2022-10-04T07:06:07.649Z,11.80
2022-10-04T07:08:56.598Z,11.84
2022-10-04T07:11:32.669Z,11.92
2022-10-04T07:14:08.321Z,11.85
2022-10-04T07:16:49.892Z,11.94
2022-10-04T07:19:26.218Z,12.11
2022-10-04T07:22:12.178Z,12.08
2022-10-04T07:24:53.828Z,12.24
2022-10-04T07:27:26.625Z,12.28
2022-10-04T07:29:58.907Z,12.49
2022-10-04T07:32:34.424Z,12.63
2022-10-04T07:35:06.913Z,12.78
2022-10-04T07:37:39.762Z,12.98
2022-10-04T07:40:12.565Z,12.86
2022-10-04T07:42:45.331Z,13.12
2022-10-04T07:45:30.319Z,13.30
2022-10-04T07:48:19.127Z,13.38
2022-10-04T07:51:17.161Z,13.59
2022-10-04T07:54:07.747Z,13.63
2022-10-04T07:56:46.120Z,13.58
2022-10-04T07:59:32.356Z,13.70
2022-10-04T08:02:13.986Z,13.47
2022-10-04T08:04:46.591Z,13.48
2022-10-04T08:07:22.515Z,13.64
2022-10-04T08:10:13.362Z,13.64
2022-10-04T08:12:55.062Z,13.90
2022-10-04T08:15:41.977Z,14.16
2022-10-04T08:18:19.654Z,14.25
2022-10-04T08:21:04.009Z,14.08
2022-10-04T08:23:36.780Z,14.11
2022-10-04T08:26:29.987Z,14.23
2022-10-04T08:29:26.109Z,14.56
2022-10-04T08:32:19.232Z,14.65
2022-10-04T08:35:04.123Z,14.65
2022-10-04T08:38:05.212Z,14.55
2022-10-04T08:40:52.297Z,14.51
2022-10-04T08:43:29.081Z,14.76
2022-10-04T08:46:24.262Z,14.91
2022-10-04T08:49:08.873Z,14.94
2022-10-04T08:52:02.647Z,14.83
2022-10-04T08:55:06.748Z,15.05
2022-10-04T08:58:10.969Z,14.93
2022-10-04T09:00:58.149Z,14.98
2022-10-04T09:03:45.798Z,15.30
2022-10-04T09:06:37.031Z,15.70
2022-10-04T09:09:34.859Z,16.00
2022-10-04T09:12:24.345Z,16.14
2022-10-04T09:15:02.630Z,16.46
2022-10-04T09:18:05.374Z,16.35
2022-10-04T09:20:39.600Z,16.02
2022-10-04T09:23:29.294Z,16.51
2022-10-04T09:26:10.821Z,16.89
2022-10-04T09:29:05.508Z,17.07
2022-10-04T09:31:57.601Z,17.00
2022-10-04T09:34:55.717Z,16.84
2022-10-04T09:37:31.236Z,17.25
2022-10-04T09:40:10.789Z,17.45
2022-10-04T09:43:01.750Z,17.75
2022-10-04T09:45:50.820Z,17.55
2022-10-04T09:48:44.095Z,17.75
2022-10-04T09:51:24.623Z,17.76
2022-10-04T09:54:30.454Z,17.91
2022-10-04T09:57:06.666Z,17.82
2022-10-04T09:59:49.986Z,18.07
2022-10-04T10:02:48.247Z,18.14
2022-10-04T10:05:36.858Z,18.35
2022-10-04T10:08:18.238Z,18.79
2022-10-04T10:11:35.636Z,19.09
2022-10-04T10:14:35.930Z,18.81
2022-10-04T10:17:16.007Z,18.60
2022-10-04T10:20:06.290Z,18.51
2022-10-04T10:23:07.259Z,18.79
2022-10-04T10:25:42.558Z,18.68
2022-10-04T10:28:35.366Z,18.56
2022-10-04T10:31:24.681Z,18.31
2022-10-04T10:34:16.520Z,18.33
2022-10-04T10:37:11.379Z,18.70
2022-10-04T10:39:50.038Z,19.12
2022-10-04T10:42:39.025Z,19.33
2022-10-04T10:45:32.393Z,19.71
2022-10-04T10:48:05.262Z,19.62
2022-10-04T10:51:00.313Z,19.62
2022-10-04T10:53:48.162Z,19.38
2022-10-04T10:56:36.754Z,19.21
2022-10-04T10:59:27.433Z,19.53
2022-10-04T11:02:42.253Z,19.44
2022-10-04T11:05:04.880Z,19.73
2022-10-04T11:07:52.443Z,19.93
2022-10-04T11:10:40.001Z,20.10
2022-10-04T11:16:26.889Z,19.94
2022-10-04T11:19:23.956Z,19.88
2022-10-04T11:22:16.339Z,19.86
2022-10-04T11:25:07.086Z,20.13
2022-10-04T11:27:58.186Z,20.38
2022-10-04T11:30:49.137Z,20.44
2022-10-04T11:33:38.969Z,20.33
2022-10-04T11:36:41.804Z,20.00
2022-10-04T11:39:17.326Z,19.95
2022-10-04T11:41:50.331Z,20.09
2022-10-04T11:44:37.712Z,20.01
2022-10-04T11:47:13.225Z,20.46
2022-10-04T11:50:08.595Z,20.34
2022-10-04T11:53:08.365Z,20.57
2022-10-04T11:55:52.004Z,20.99
2022-10-04T11:58:41.908Z,21.01
2022-10-04T12:01:40.833Z,20.95
2022-10-04T12:04:43.346Z,20.88
2022-10-04T12:07:28.020Z,20.77
2022-10-04T12:10:03.893Z,20.45
2022-10-04T12:12:39.244Z,20.92
2022-10-04T12:15:11.898Z,21.33
2022-10-04T12:18:12.715Z,21.17
2022-10-04T12:21:12.562Z,20.96
2022-10-04T12:24:04.589Z,21.17
2022-10-04T12:26:47.763Z,20.90
2022-10-04T12:29:28.756Z,20.70
2022-10-04T12:32:13.426Z,20.49
2022-10-04T12:35:07.498Z,21.76
2022-10-04T12:37:52.112Z,21.93
2022-10-04T12:43:22.882Z,21.69
2022-10-04T12:46:04.342Z,21.78
2022-10-04T12:48:47.419Z,22.12
2022-10-04T12:51:39.466Z,22.33
2022-10-04T12:54:33.159Z,21.90
2022-10-04T12:57:22.916Z,21.67
2022-10-04T12:59:58.145Z,21.49
2022-10-04T13:02:47.598Z,21.83
2022-10-04T13:05:23.109Z,22.16
2022-10-04T13:08:04.869Z,22.22
2022-10-04T13:10:47.749Z,21.52
2022-10-04T13:13:42.248Z,22.06
2022-10-04T13:19:09.846Z,22.06
2022-10-04T13:22:03.352Z,21.79
2022-10-04T13:24:56.798Z,21.63
2022-10-04T13:27:50.206Z,21.64
2022-10-04T13:30:31.289Z,21.55
2022-10-04T13:33:04.138Z,21.05
2022-10-04T13:35:42.340Z,21.12
2022-10-04T13:38:28.158Z,21.11
2022-10-04T13:41:17.000Z,21.25
2022-10-04T13:44:15.308Z,21.69
2022-10-04T13:47:15.533Z,21.61
2022-10-04T13:50:04.567Z,21.63
2022-10-04T13:53:11.453Z,21.29
2022-10-04T13:56:20.473Z,21.33
2022-10-04T13:59:21.275Z,21.37
2022-10-04T14:02:13.510Z,21.14
2022-10-04T14:05:10.337Z,21.65
2022-10-04T14:07:52.886Z,21.36
2022-10-04T14:10:40.459Z,21.60
2022-10-04T14:13:37.922Z,21.29
2022-10-04T14:16:47.362Z,20.93
2022-10-04T14:19:36.226Z,21.05
2022-10-04T14:22:14.559Z,21.45
2022-10-04T14:24:47.435Z,21.09
2022-10-04T14:27:23.106Z,20.83
2022-10-04T14:29:58.211Z,20.83
2022-10-04T14:32:42.622Z,20.97
2022-10-04T14:35:18.106Z,20.80
2022-10-04T14:38:06.694Z,20.32
2022-10-04T14:40:48.290Z,21.01
2022-10-04T14:43:23.881Z,21.01
2022-10-04T14:46:30.814Z,21.45
2022-10-04T14:49:12.303Z,20.97
2022-10-04T14:51:50.867Z,21.04
2022-10-04T14:54:26.361Z,21.55
2022-10-04T14:57:05.318Z,21.55
2022-10-04T14:59:49.225Z,21.67
2022-10-04T15:02:31.546Z,21.84
2022-10-04T15:05:16.320Z,21.73
2022-10-04T15:07:51.884Z,21.48
2022-10-04T15:10:24.754Z,20.88
2022-10-04T15:13:12.757Z,20.88
2022-10-04T15:16:13.964Z,20.77
2022-10-04T15:18:52.526Z,20.74
2022-10-04T15:21:41.172Z,21.23
2022-10-04T15:24:27.365Z,20.54
2022-10-04T15:27:14.742Z,20.54
2022-10-04T15:30:05.364Z,20.71
2022-10-04T15:32:49.614Z,20.96
2022-10-04T15:35:28.087Z,20.77
2022-10-04T15:38:04.331Z,20.40
2022-10-04T15:40:42.806Z,20.31
2022-10-04T15:43:33.488Z,20.38
2022-10-04T15:46:26.768Z,20.65
2022-10-04T15:49:18.554Z,20.45
2022-10-04T15:52:09.638Z,20.36
2022-10-04T15:54:52.300Z,19.87
2022-10-04T15:57:51.924Z,20.03
2022-10-04T16:00:32.049Z,20.13
2022-10-04T16:03:17.014Z,20.13
2022-10-04T16:06:15.059Z,19.80
2022-10-04T16:08:53.339Z,19.73
2022-10-04T16:11:37.775Z,19.72
2022-10-04T16:14:36.644Z,19.48
2022-10-04T16:17:23.964Z,19.64
2022-10-04T16:20:19.853Z,19.71
2022-10-04T16:23:25.435Z,19.46
2022-10-04T16:25:58.174Z,19.53
2022-10-04T16:28:39.734Z,19.50
2022-10-04T16:31:44.084Z,19.39
2022-10-04T16:34:44.681Z,19.47
2022-10-04T16:37:17.213Z,19.24
2022-10-04T16:40:05.797Z,19.28
2022-10-04T16:42:46.938Z,19.05
2022-10-04T16:45:54.106Z,18.86
2022-10-04T16:48:35.256Z,18.99
2022-10-04T16:51:22.971Z,18.85
2022-10-04T16:54:16.410Z,18.63
2022-10-04T16:56:56.808Z,18.55
2022-10-04T16:59:44.133Z,18.43
2022-10-04T17:02:19.773Z,18.53
2022-10-04T17:04:54.158Z,18.55
2022-10-04T17:07:35.633Z,18.41
2022-10-04T17:10:38.302Z,18.20
2022-10-04T17:13:11.134Z,18.14
2022-10-04T17:15:47.090Z,17.99
2022-10-04T17:18:22.794Z,17.90
2022-10-04T17:21:11.204Z,17.83
2022-10-04T17:23:52.469Z,17.81
2022-10-04T17:26:33.496Z,17.84
2022-10-04T17:29:18.347Z,17.81
2022-10-04T17:31:53.884Z,17.72
2022-10-04T17:34:24.122Z,17.54
2022-10-04T17:36:57.231Z,17.81
2022-10-04T17:39:41.903Z,17.81
2022-10-04T17:42:36.115Z,17.69
2022-10-04T17:45:37.672Z,17.57
2022-10-04T17:48:48.371Z,17.64
2022-10-04T17:52:01.404Z,17.43
2022-10-04T17:54:51.775Z,17.51
2022-10-04T17:57:30.627Z,17.21
2022-10-04T18:00:21.232Z,17.11
2022-10-04T18:03:11.671Z,17.37
2022-10-04T18:05:47.032Z,17.23
2022-10-04T18:08:22.357Z,17.21
2022-10-04T18:11:00.529Z,17.06
2022-10-04T18:13:33.601Z,17.05
2022-10-04T18:16:27.153Z,17.11
2022-10-04T18:18:57.622Z,16.87
2022-10-04T18:21:32.191Z,16.91
2022-10-04T18:24:05.152Z,16.90
2022-10-04T18:26:34.955Z,16.77
2022-10-04T18:29:08.788Z,16.76
2022-10-04T18:31:40.695Z,16.72
2022-10-04T18:34:16.482Z,16.76
2022-10-04T18:36:58.223Z,16.53
2022-10-04T18:39:28.113Z,16.48
2022-10-04T18:42:23.390Z,16.44
2022-10-04T18:45:04.493Z,16.45
2022-10-04T18:47:38.031Z,16.39
2022-10-04T18:50:35.226Z,16.48
2022-10-04T18:53:16.853Z,16.28
2022-10-04T18:56:04.477Z,16.34
2022-10-04T18:59:20.323Z,16.49
2022-10-04T19:02:17.134Z,16.56
2022-10-04T19:04:49.778Z,16.54
2022-10-04T19:07:25.290Z,16.39
2022-10-04T19:10:14.148Z,16.73
2022-10-04T19:12:58.778Z,16.51
2022-10-04T19:15:49.214Z,16.77
2022-10-04T19:18:40.090Z,16.77
2022-10-04T19:21:15.843Z,16.91
2022-10-04T19:23:54.072Z,16.86
2022-10-04T19:26:43.408Z,16.78
2022-10-04T19:29:25.078Z,16.69
2022-10-04T19:32:12.204Z,16.62
2022-10-04T19:34:53.899Z,16.71
2022-10-04T19:37:46.489Z,16.73
2022-10-04T19:40:19.173Z,16.82
2022-10-04T19:42:54.439Z,16.74
2022-10-04T19:45:55.461Z,16.78
2022-10-04T19:48:27.501Z,16.74
2022-10-04T19:53:45.462Z,16.83
2022-10-04T19:56:20.671Z,16.62
2022-10-04T19:59:02.383Z,16.78
2022-10-04T20:01:33.442Z,16.64
2022-10-04T20:04:22.718Z,16.65
2022-10-04T20:06:58.565Z,16.65
2022-10-04T20:09:47.992Z,16.83
2022-10-04T20:12:32.838Z,16.70
2022-10-04T20:15:31.212Z,16.82
2022-10-04T20:18:02.787Z,16.86
2022-10-04T20:20:44.249Z,16.79
2022-10-04T20:23:17.031Z,16.86
2022-10-04T20:25:52.517Z,16.86
2022-10-04T20:28:33.166Z,16.73
2022-10-04T20:31:05.403Z,16.71
2022-10-04T20:33:46.855Z,16.82
2022-10-04T20:36:34.581Z,16.96
2022-10-04T20:39:06.568Z,16.83
2022-10-04T20:41:56.929Z,16.83
2022-10-04T20:44:51.788Z,16.90
2022-10-04T20:47:30.372Z,17.01
2022-10-04T20:50:01.915Z,17.01
2022-10-04T20:52:34.535Z,17.03
2022-10-04T20:55:07.601Z,16.96
2022-10-04T20:57:41.358Z,17.04
2022-10-04T21:00:25.666Z,16.80
2022-10-04T21:03:18.018Z,16.80
2022-10-04T21:06:08.490Z,17.08
2022-10-04T21:08:39.530Z,16.81
2022-10-04T21:11:22.161Z,16.54
2022-10-04T21:13:57.313Z,16.84
2022-10-04T21:16:48.462Z,16.94
2022-10-04T21:19:38.657Z,16.94
2022-10-04T21:22:11.474Z,16.85
2022-10-04T21:24:43.640Z,16.92
2022-10-04T21:27:33.004Z,17.05
2022-10-04T21:30:05.688Z,16.87
2022-10-04T21:32:37.582Z,16.74
2022-10-04T21:35:10.290Z,16.86
2022-10-04T21:37:40.311Z,16.90
2022-10-04T21:40:10.362Z,17.01
2022-10-04T21:42:40.129Z,16.86
2022-10-04T21:45:09.905Z,16.79
2022-10-04T21:47:39.692Z,16.83
2022-10-04T21:50:11.166Z,17.01
2022-10-04T21:52:40.910Z,16.86
2022-10-04T21:55:10.829Z,17.05
2022-10-04T21:57:40.620Z,16.92
2022-10-04T22:00:12.599Z,16.94
2022-10-04T22:02:42.269Z,16.97
2022-10-04T22:05:11.697Z,17.03
2022-10-04T22:07:41.442Z,16.84
2022-10-04T22:10:11.543Z,17.03
2022-10-04T22:12:41.040Z,16.99
2022-10-04T22:15:11.079Z,16.96
2022-10-04T22:17:40.805Z,16.83
2022-10-04T22:20:11.536Z,16.98
2022-10-04T22:22:41.285Z,16.75
2022-10-04T22:25:19.684Z,16.92
2022-10-04T22:27:51.842Z,16.89
2022-10-04T22:30:30.080Z,16.96
2022-10-04T22:33:02.297Z,16.94
2022-10-04T22:35:34.135Z,17.18
2022-10-04T22:38:08.548Z,17.03
2022-10-04T22:40:38.298Z,17.05
2022-10-04T22:43:10.822Z,16.89
2022-10-04T22:45:42.359Z,16.88
2022-10-04T22:48:14.974Z,16.69
2022-10-04T22:50:44.497Z,16.78
2022-10-04T22:53:22.942Z,16.80
2022-10-04T22:55:55.149Z,16.79
2022-10-04T22:58:24.654Z,16.88
2022-10-04T23:00:55.935Z,16.83
2022-10-04T23:03:34.478Z,16.89
2022-10-04T23:06:07.867Z,16.81
2022-10-04T23:08:37.348Z,16.76
2022-10-04T23:11:07.467Z,16.91
2022-10-04T23:13:37.631Z,16.76
2022-10-04T23:16:20.156Z,16.88
2022-10-04T23:18:50.184Z,16.81
2022-10-04T23:21:23.179Z,16.64
2022-10-04T23:23:54.330Z,16.63
2022-10-04T23:26:26.605Z,16.62
2022-10-04T23:28:56.340Z,16.65
2022-10-04T23:31:27.855Z,16.61
2022-10-04T23:33:58.408Z,16.63
2022-10-04T23:36:27.848Z,16.60
2022-10-04T23:39:00.640Z,16.65
2022-10-04T23:41:30.457Z,16.61
2022-10-04T23:44:00.380Z,16.90
2022-10-04T23:46:31.576Z,16.63
2022-10-04T23:49:01.318Z,16.54
2022-10-04T23:51:31.154Z,16.52
2022-10-04T23:54:00.895Z,16.60
2022-10-04T23:56:30.907Z,16.64
2022-10-04T23:59:00.708Z,16.66
